Time;durP1;ratioP1;P1;durP2;ratioP2;P2;SDS_P1;SDS_P2;PMS_P1;PMS_P2;Temp;Humidity;BMP_temperature;BMP_pressure;BME280_temperature;BME280_humidity;BME280_pressure;Samples;Min_cycle;Max_cycle;Signal;HPM_P1;HPM_P2
2022/08/02 00:00:10;;;;;;;6.07;3.60;;;23.00;63.90;;;;;;5052366;28;20458;-44
2022/08/02 00:02:37;;;;;;;4.63;3.40;;;22.90;63.70;;;;;;5042314;28;20465;-44
2022/08/02 00:05:04;;;;;;;3.87;2.93;;;22.90;63.80;;;;;;5043004;28;20493;-44
2022/08/02 00:07:31;;;;;;;3.93;3.30;;;22.80;63.90;;;;;;5054297;28;20466;-44
2022/08/02 00:10:07;;;;;;;4.37;3.83;;;22.70;64.00;;;;;;5055204;28;20465;-44
2022/08/02 00:12:34;;;;;;;3.77;3.47;;;22.70;64.00;;;;;;5057652;28;20457;-44
2022/08/02 00:15:02;;;;;;;5.50;4.30;;;22.60;64.10;;;;;;5044201;28;20477;-44
2022/08/02 00:17:28;;;;;;;4.20;3.83;;;22.60;64.20;;;;;;5036342;28;20453;-44
2022/08/02 00:19:55;;;;;;;4.03;3.73;;;22.50;64.30;;;;;;5039566;28;20455;-44
2022/08/02 00:22:22;;;;;;;4.00;3.70;;;22.50;64.50;;;;;;5043476;28;20474;-44
2022/08/02 00:24:48;;;;;;;4.17;3.87;;;22.50;64.50;;;;;;5053729;28;21208;-44
2022/08/02 00:27:15;;;;;;;4.90;3.60;;;22.40;64.50;;;;;;5055472;28;20473;-44
2022/08/02 00:29:42;;;;;;;4.00;3.60;;;22.40;64.50;;;;;;5052153;28;20454;-44
2022/08/02 00:32:19;;;;;;;3.77;3.43;;;22.40;64.50;;;;;;5055768;28;20473;-44
2022/08/02 00:34:45;;;;;;;4.80;4.00;;;22.30;64.80;;;;;;5056512;28;20882;-44
2022/08/02 00:37:12;;;;;;;3.20;3.00;;;22.30;64.70;;;;;;5057365;28;20470;-44
2022/08/02 00:39:41;;;;;;;4.43;3.20;;;22.30;64.60;;;;;;5056279;28;20454;-44
2022/08/02 00:42:08;;;;;;;3.73;3.43;;;22.30;64.70;;;;;;5057441;28;20473;-44
2022/08/02 00:44:36;;;;;;;4.03;3.67;;;22.20;64.80;;;;;;5063299;28;20981;-44
2022/08/02 00:47:03;;;;;;;4.70;3.70;;;22.20;65.20;;;;;;5043955;28;20465;-43
2022/08/02 00:49:30;;;;;;;3.40;3.10;;;22.10;65.50;;;;;;5055624;28;20818;-43
2022/08/02 00:51:59;;;;;;;5.47;3.27;;;22.10;65.60;;;;;;5060800;28;20461;-43
2022/08/02 00:54:26;;;;;;;3.20;3.00;;;22.00;65.70;;;;;;5058154;28;20489;-43
2022/08/02 00:56:53;;;;;;;4.17;3.77;;;22.00;65.80;;;;;;5058951;28;20489;-44
2022/08/02 00:59:20;;;;;;;3.90;3.60;;;22.00;66.00;;;;;;5040757;28;20458;-44
2022/08/02 01:01:46;;;;;;;4.37;3.97;;;22.00;65.90;;;;;;5039846;28;20845;-44
2022/08/02 01:04:24;;;;;;;5.73;4.07;;;22.00;65.90;;;;;;5037710;28;20627;-44
2022/08/02 01:06:58;;;;;;;3.60;3.30;;;21.90;66.00;;;;;;5042465;28;20896;-44
2022/08/02 01:09:26;;;;;;;3.90;3.60;;;21.90;66.30;;;;;;5057675;28;20984;-44
2022/08/02 01:11:53;;;;;;;3.50;3.20;;;21.90;66.40;;;;;;5044884;28;20458;-44
2022/08/02 01:14:23;;;;;;;4.77;3.63;;;21.90;66.60;;;;;;5055532;28;20462;-44
2022/08/02 01:17:28;;;;;;;4.23;3.93;;;21.80;66.70;;;;;;5054226;28;20471;-44
2022/08/02 01:20:06;;;;;;;4.37;3.97;;;21.80;66.80;;;;;;5026510;28;20445;-44
2022/08/02 01:23:04;;;;;;;3.40;3.10;;;21.80;66.80;;;;;;5057813;28;20454;-44
2022/08/02 01:26:02;;;;;;;4.90;3.40;;;21.80;66.90;;;;;;5071551;28;20866;-44
2022/08/02 01:28:54;;;;;;;4.10;3.70;;;21.80;66.80;;;;;;5057902;28;20458;-44
2022/08/02 01:31:34;;;;;;;3.93;3.53;;;21.80;66.60;;;;;;5074605;28;20461;-43
2022/08/02 01:34:31;;;;;;;3.40;3.20;;;21.70;66.60;;;;;;5061378;28;20473;-43
2022/08/02 01:37:10;;;;;;;7.97;4.00;;;21.70;66.60;;;;;;5055480;28;20459;-43
2022/08/02 01:39:39;;;;;;;3.50;3.30;;;21.60;66.80;;;;;;5059273;28;20449;-43
2022/08/02 01:42:07;;;;;;;5.03;3.80;;;21.60;66.90;;;;;;5059942;28;20447;-43
2022/08/02 01:44:36;;;;;;;3.80;3.50;;;21.60;67.10;;;;;;5056490;28;20469;-43
2022/08/02 01:47:16;;;;;;;4.00;3.70;;;21.50;67.30;;;;;;5055332;28;20469;-44
2022/08/02 01:49:46;;;;;;;5.17;3.27;;;21.50;67.40;;;;;;5056666;28;20469;-43
2022/08/02 01:52:21;;;;;;;4.77;3.70;;;21.50;67.40;;;;;;5057626;28;20473;-43
2022/08/02 01:54:55;;;;;;;3.80;3.40;;;21.50;67.70;;;;;;5056605;28;21008;-44
2022/08/02 01:57:23;;;;;;;4.40;4.00;;;21.40;68.00;;;;;;5055695;28;20482;-43
2022/08/02 01:59:52;;;;;;;5.10;3.87;;;21.40;68.20;;;;;;5030060;28;20458;-44
2022/08/02 02:02:20;;;;;;;4.40;3.90;;;21.30;68.40;;;;;;5057493;28;20834;-43
2022/08/02 02:04:50;;;;;;;4.40;4.00;;;21.30;68.40;;;;;;5056769;28;20511;-43
2022/08/02 02:07:19;;;;;;;3.93;3.63;;;21.30;68.50;;;;;;5056742;28;20462;-43
2022/08/02 02:09:47;;;;;;;4.63;4.23;;;21.30;68.70;;;;;;5055879;28;20453;-43
2022/08/02 02:12:18;;;;;;;4.13;3.83;;;21.20;68.90;;;;;;5052864;28;20469;-43
2022/08/02 02:14:46;;;;;;;4.23;3.83;;;21.20;68.90;;;;;;5054155;28;20526;-43
2022/08/02 02:17:21;;;;;;;3.83;3.53;;;21.20;69.00;;;;;;5048964;28;20865;-43
2022/08/02 02:20:15;;;;;;;4.50;4.10;;;21.20;69.10;;;;;;5056794;28;20451;-44
2022/08/02 02:22:43;;;;;;;4.67;4.27;;;21.20;69.20;;;;;;5058064;28;20446;-44
2022/08/02 02:25:11;;;;;;;4.30;3.90;;;21.10;69.30;;;;;;5055951;28;20461;-43
2022/08/02 02:28:04;;;;;;;5.13;4.63;;;21.10;69.50;;;;;;5058837;28;20614;-43
2022/08/02 02:30:32;;;;;;;5.27;3.63;;;21.00;69.60;;;;;;5039736;28;20457;-43
2022/08/02 02:33:02;;;;;;;4.27;3.90;;;21.00;70.00;;;;;;5057176;28;20457;-43
2022/08/02 02:35:32;;;;;;;4.70;4.00;;;20.90;70.20;;;;;;5054062;28;20486;-43
2022/08/02 02:38:03;;;;;;;3.93;3.63;;;20.90;70.30;;;;;;5058699;28;20815;-43
2022/08/02 02:40:31;;;;;;;4.23;3.90;;;20.90;70.40;;;;;;5021695;28;20457;-44
2022/08/02 02:43:00;;;;;;;4.07;3.67;;;20.90;70.50;;;;;;5041123;28;20830;-43
2022/08/02 02:45:29;;;;;;;4.80;4.10;;;20.90;70.50;;;;;;5042400;28;20466;-43
2022/08/02 02:47:56;;;;;;;4.30;4.00;;;20.90;70.60;;;;;;5038314;28;20536;-43
2022/08/02 02:50:24;;;;;;;4.20;3.83;;;20.90;70.60;;;;;;5055337;28;20472;-43
2022/08/02 02:52:52;;;;;;;5.07;4.10;;;20.90;70.70;;;;;;5051529;28;20466;-44
2022/08/02 02:55:20;;;;;;;4.40;4.00;;;20.80;70.90;;;;;;5055562;28;20505;-43
2022/08/02 02:57:47;;;;;;;3.20;3.00;;;20.80;71.00;;;;;;5054491;28;20488;-43
2022/08/02 03:00:14;;;;;;;3.87;3.50;;;20.80;71.10;;;;;;5056312;28;20465;-43
2022/08/02 03:02:43;;;;;;;4.27;3.90;;;20.80;71.10;;;;;;5044712;28;20461;-44
2022/08/02 03:05:11;;;;;;;3.90;3.43;;;20.80;71.20;;;;;;5055343;28;20475;-43
2022/08/02 03:07:39;;;;;;;4.57;4.17;;;20.80;71.20;;;;;;5054695;28;20489;-43
2022/08/02 03:10:06;;;;;;;4.80;4.03;;;20.80;71.10;;;;;;5054712;28;20466;-43
2022/08/02 03:12:35;;;;;;;4.60;4.20;;;20.80;71.00;;;;;;5045650;28;20468;-43
2022/08/02 03:15:05;;;;;;;5.20;4.43;;;20.80;71.00;;;;;;5051853;28;20493;-43
2022/08/02 03:17:43;;;;;;;4.17;3.83;;;20.70;71.00;;;;;;5052907;28;20445;-43
2022/08/02 03:20:18;;;;;;;4.23;3.70;;;20.70;70.90;;;;;;5053638;28;20458;-43
2022/08/02 03:22:46;;;;;;;4.27;3.87;;;20.70;71.00;;;;;;5057048;28;20458;-43
2022/08/02 03:25:14;;;;;;;4.60;4.20;;;20.70;71.10;;;;;;5053924;28;20463;-44
2022/08/02 03:27:41;;;;;;;4.40;4.00;;;20.70;71.10;;;;;;5055673;28;20476;-43
2022/08/02 03:30:11;;;;;;;4.33;4.03;;;20.70;71.20;;;;;;5053574;28;20458;-44
2022/08/02 03:32:40;;;;;;;4.03;3.73;;;20.60;71.50;;;;;;5038735;28;20991;-43
2022/08/02 03:35:09;;;;;;;8.47;4.70;;;20.60;71.60;;;;;;5057271;28;20497;-43
2022/08/02 03:37:37;;;;;;;5.13;4.70;;;20.60;71.60;;;;;;5055819;28;20449;-43
2022/08/02 03:40:08;;;;;;;5.10;3.97;;;20.60;71.50;;;;;;5052875;28;21021;-43
2022/08/02 03:42:35;;;;;;;6.07;4.40;;;20.60;71.60;;;;;;5052090;28;20496;-43
2022/08/02 03:45:02;;;;;;;4.60;4.20;;;20.60;71.70;;;;;;5054012;28;20911;-43
2022/08/02 03:47:36;;;;;;;4.87;3.80;;;20.60;71.70;;;;;;5053530;28;20581;-43
2022/08/02 03:50:03;;;;;;;4.47;4.07;;;20.60;71.80;;;;;;5068133;28;21078;-43
2022/08/02 03:52:31;;;;;;;4.17;3.77;;;20.60;71.70;;;;;;5054264;28;20489;-44
2022/08/02 03:54:58;;;;;;;4.03;3.73;;;20.60;71.80;;;;;;5058334;28;20458;-43
2022/08/02 03:57:25;;;;;;;4.20;3.80;;;20.60;71.80;;;;;;5064744;28;20516;-43
2022/08/02 03:59:52;;;;;;;4.70;4.30;;;20.60;71.90;;;;;;5036652;28;20469;-43
2022/08/02 04:02:19;;;;;;;4.83;4.07;;;20.60;71.80;;;;;;5051280;28;20446;-43
2022/08/02 04:04:45;;;;;;;4.67;4.37;;;20.60;71.90;;;;;;5051553;28;20455;-43
2022/08/02 04:07:12;;;;;;;5.37;4.77;;;20.60;71.90;;;;;;5055316;28;20467;-43
2022/08/02 04:09:39;;;;;;;4.00;3.70;;;20.50;72.10;;;;;;5056109;28;20462;-44
2022/08/02 04:12:06;;;;;;;4.23;3.93;;;20.50;72.20;;;;;;5046142;28;20497;-43
2022/08/02 04:14:32;;;;;;;5.00;4.50;;;20.50;72.30;;;;;;5057598;28;20463;-43
2022/08/02 04:17:07;;;;;;;4.60;4.20;;;20.40;72.40;;;;;;5056738;28;20996;-43
2022/08/02 04:19:46;;;;;;;4.43;4.13;;;20.40;72.40;;;;;;5044024;28;20453;-44
2022/08/02 04:22:32;;;;;;;4.30;3.50;;;20.40;72.40;;;;;;5061707;28;20462;-44
2022/08/02 04:25:01;;;;;;;4.20;3.90;;;20.40;72.30;;;;;;5061688;28;20461;-45
2022/08/02 04:27:30;;;;;;;4.47;4.00;;;20.40;72.30;;;;;;5054994;28;20459;-45
2022/08/02 04:30:17;;;;;;;4.17;3.87;;;20.40;72.40;;;;;;5056600;28;20454;-45
2022/08/02 04:32:45;;;;;;;4.37;4.07;;;20.40;72.50;;;;;;5058194;28;20453;-45
2022/08/02 04:35:12;;;;;;;4.30;4.00;;;20.30;72.50;;;;;;5057863;28;20457;-45
2022/08/02 04:37:48;;;;;;;4.70;4.30;;;20.30;72.60;;;;;;5074414;28;20822;-45
2022/08/02 04:40:35;;;;;;;4.50;4.10;;;20.30;72.70;;;;;;5056865;28;20499;-45
2022/08/02 04:43:01;;;;;;;4.47;4.07;;;20.30;72.70;;;;;;5056640;28;20899;-45
2022/08/02 04:45:29;;;;;;;4.40;4.00;;;20.30;72.90;;;;;;5058040;28;20954;-45
2022/08/02 04:47:56;;;;;;;4.30;4.00;;;20.30;73.10;;;;;;5057160;28;21129;-45
2022/08/02 04:50:32;;;;;;;4.47;4.17;;;20.30;73.10;;;;;;5044032;28;20466;-45
2022/08/02 04:52:59;;;;;;;4.50;4.20;;;20.20;73.30;;;;;;5055245;28;20842;-45
2022/08/02 04:55:27;;;;;;;5.30;4.73;;;20.30;73.30;;;;;;5040984;28;20485;-45
2022/08/02 04:57:56;;;;;;;6.10;4.27;;;20.30;73.40;;;;;;5055817;28;20481;-45
2022/08/02 05:00:24;;;;;;;5.33;4.83;;;20.30;73.40;;;;;;5056745;28;20465;-45
2022/08/02 05:02:51;;;;;;;4.80;4.40;;;20.30;73.60;;;;;;5057506;28;20458;-45
2022/08/02 05:05:19;;;;;;;4.20;3.80;;;20.30;73.70;;;;;;5058817;28;20462;-45
2022/08/02 05:07:46;;;;;;;4.90;4.50;;;20.30;73.60;;;;;;5057471;28;20963;-45
2022/08/02 05:10:13;;;;;;;5.50;5.00;;;20.30;73.70;;;;;;5043799;28;21246;-45
2022/08/02 05:12:40;;;;;;;4.97;4.57;;;20.40;73.80;;;;;;5058475;28;20462;-45
2022/08/02 05:15:10;;;;;;;4.97;4.50;;;20.40;73.80;;;;;;5055496;28;21113;-45
2022/08/02 05:17:39;;;;;;;4.93;4.43;;;20.40;73.80;;;;;;5030078;28;20500;-45
2022/08/02 05:20:16;;;;;;;5.80;4.63;;;20.50;73.70;;;;;;5068438;28;21073;-45
2022/08/02 05:22:44;;;;;;;4.90;4.50;;;20.50;73.50;;;;;;5056213;28;20454;-45
2022/08/02 05:25:11;;;;;;;5.60;4.33;;;20.50;73.50;;;;;;5057889;28;20450;-45
2022/08/02 05:27:37;;;;;;;4.83;4.43;;;20.50;73.50;;;;;;5057028;28;20462;-45
2022/08/02 05:30:05;;;;;;;5.00;4.60;;;20.60;73.20;;;;;;5058865;28;20481;-45
2022/08/02 05:32:32;;;;;;;4.43;4.03;;;20.60;72.90;;;;;;5059331;28;20489;-45
2022/08/02 05:35:00;;;;;;;5.03;4.53;;;20.70;72.90;;;;;;5057258;28;20801;-45
2022/08/02 05:37:27;;;;;;;5.33;4.87;;;20.70;72.80;;;;;;5057947;28;20508;-45
2022/08/02 05:39:58;;;;;;;5.00;4.60;;;20.80;72.80;;;;;;5058144;28;20864;-45
2022/08/02 05:42:30;;;;;;;5.00;4.50;;;20.80;72.70;;;;;;5040684;28;20458;-45
2022/08/02 05:44:57;;;;;;;4.70;4.30;;;20.90;72.70;;;;;;5053435;28;20461;-45
2022/08/02 05:47:24;;;;;;;5.13;4.80;;;20.90;72.70;;;;;;5036902;28;20462;-45
2022/08/02 05:49:51;;;;;;;4.60;4.30;;;21.00;72.80;;;;;;5060169;28;20467;-45
2022/08/02 05:52:19;;;;;;;5.33;4.83;;;21.00;72.80;;;;;;5058499;28;20996;-45
2022/08/02 05:54:49;;;;;;;4.57;4.20;;;21.10;72.60;;;;;;5057102;28;20701;-45
2022/08/02 05:57:39;;;;;;;4.43;4.13;;;21.20;72.50;;;;;;5053284;28;21018;-45
2022/08/02 06:00:12;;;;;;;4.73;4.43;;;21.20;72.30;;;;;;5056648;28;20458;-45
2022/08/02 06:02:39;;;;;;;5.13;4.63;;;21.30;72.20;;;;;;5057624;28;20476;-45
2022/08/02 06:05:18;;;;;;;4.97;4.60;;;21.30;72.10;;;;;;5052520;28;20489;-45
2022/08/02 06:07:47;;;;;;;5.20;4.80;;;21.40;72.10;;;;;;5055671;28;20461;-45
2022/08/02 06:10:16;;;;;;;4.93;4.63;;;21.50;71.70;;;;;;5058262;28;20443;-45
2022/08/02 06:12:55;;;;;;;4.77;4.30;;;21.60;71.60;;;;;;5071545;28;20465;-45
2022/08/02 06:15:21;;;;;;;4.67;4.27;;;21.70;71.00;;;;;;5072587;28;20468;-45
2022/08/02 06:17:48;;;;;;;4.87;4.47;;;21.70;70.90;;;;;;5039491;28;20482;-45
2022/08/02 06:20:18;;;;;;;5.10;4.70;;;21.70;70.90;;;;;;5026594;28;20457;-45
2022/08/02 06:22:46;;;;;;;5.17;4.77;;;21.70;71.00;;;;;;5044514;28;20453;-45
2022/08/02 06:25:13;;;;;;;5.17;4.63;;;21.70;71.00;;;;;;5060404;28;20454;-45
2022/08/02 06:28:01;;;;;;;4.63;4.30;;;21.80;71.00;;;;;;5055820;28;20536;-45
2022/08/02 06:30:30;;;;;;;4.83;4.37;;;21.90;70.90;;;;;;5041490;28;20518;-45
2022/08/02 06:32:59;;;;;;;5.50;4.77;;;22.00;70.60;;;;;;5041122;28;20458;-44
2022/08/02 06:36:02;;;;;;;4.77;4.27;;;22.00;70.40;;;;;;5050982;28;22413;-44
2022/08/02 06:38:39;;;;;;;4.33;3.93;;;22.10;70.10;;;;;;5057724;28;20457;-42
2022/08/02 06:41:11;;;;;;;4.67;4.27;;;22.20;69.90;;;;;;5047258;28;20969;-43
2022/08/02 06:44:00;;;;;;;5.33;4.93;;;22.30;69.80;;;;;;5057434;28;21034;-43
2022/08/02 06:46:47;;;;;;;4.63;4.03;;;22.50;69.70;;;;;;5052365;28;20465;-43
2022/08/02 06:49:34;;;;;;;5.13;4.70;;;22.60;69.00;;;;;;5050427;28;20559;-43
2022/08/02 06:52:27;;;;;;;5.30;4.40;;;22.80;68.50;;;;;;5058432;28;20539;-43
2022/08/02 06:55:01;;;;;;;4.43;4.13;;;22.90;67.60;;;;;;5052978;28;20799;-43
2022/08/02 06:57:28;;;;;;;4.20;3.90;;;23.00;67.40;;;;;;5057917;28;20978;-45
2022/08/02 06:59:57;;;;;;;5.03;4.67;;;23.10;67.10;;;;;;5071111;28;20493;-45
2022/08/02 07:02:25;;;;;;;5.20;4.63;;;23.20;66.80;;;;;;5078934;28;20484;-46
2022/08/02 07:04:52;;;;;;;4.97;4.57;;;23.40;66.50;;;;;;5081810;28;20454;-46
2022/08/02 07:07:18;;;;;;;4.20;3.90;;;23.50;65.90;;;;;;5086635;28;20521;-47
2022/08/02 07:09:45;;;;;;;6.27;4.50;;;23.60;65.60;;;;;;5078611;28;20478;-46
2022/08/02 07:12:29;;;;;;;4.23;3.90;;;23.70;65.00;;;;;;5083803;28;20475;-46
2022/08/02 07:14:57;;;;;;;3.80;3.50;;;23.90;64.20;;;;;;5066556;28;20476;-46
2022/08/02 07:17:24;;;;;;;4.63;4.20;;;24.00;63.70;;;;;;5068729;28;20487;-46
2022/08/02 07:19:51;;;;;;;4.77;4.30;;;24.20;63.50;;;;;;5057052;28;20513;-46
2022/08/02 07:22:19;;;;;;;6.40;4.30;;;24.30;62.70;;;;;;5053568;28;20847;-46
2022/08/02 07:24:45;;;;;;;4.20;3.70;;;24.30;62.30;;;;;;5056468;28;20803;-46
2022/08/02 07:27:12;;;;;;;4.07;3.63;;;24.40;62.10;;;;;;5044578;28;20505;-46
2022/08/02 07:29:40;;;;;;;3.30;2.93;;;24.50;60.90;;;;;;5043273;28;21165;-46
2022/08/02 07:32:25;;;;;;;5.80;3.70;;;24.60;60.00;;;;;;5039993;28;20461;-46
2022/08/02 07:34:52;;;;;;;5.10;3.87;;;24.70;59.60;;;;;;5055037;28;20460;-45
2022/08/02 07:37:30;;;;;;;3.47;3.17;;;24.70;59.60;;;;;;5055525;28;20980;-45
2022/08/02 07:40:16;;;;;;;3.63;3.33;;;24.80;59.60;;;;;;5042165;28;20446;-45
2022/08/02 07:42:48;;;;;;;3.13;2.93;;;25.00;59.30;;;;;;5040730;28;20476;-45
2022/08/02 07:45:15;;;;;;;2.87;2.60;;;25.20;58.40;;;;;;5060565;28;20879;-46
2022/08/02 07:47:44;;;;;;;4.50;2.30;;;25.30;56.60;;;;;;5059026;28;20481;-46
2022/08/02 07:50:13;;;;;;;3.00;2.60;;;25.50;56.10;;;;;;5057133;28;20942;-45
2022/08/02 07:52:40;;;;;;;2.83;2.53;;;25.60;55.90;;;;;;5072078;28;20476;-46
2022/08/02 07:55:09;;;;;;;2.00;1.80;;;25.80;53.90;;;;;;5058961;28;20464;-46
2022/08/02 07:57:37;;;;;;;3.27;3.00;;;26.00;52.10;;;;;;5058417;28;20500;-46
2022/08/02 08:00:12;;;;;;;4.23;2.60;;;26.10;50.70;;;;;;5045621;28;20445;-46
2022/08/02 08:02:39;;;;;;;5.93;2.67;;;26.30;51.30;;;;;;5060062;28;20459;-46
2022/08/02 08:05:06;;;;;;;3.60;2.90;;;26.50;51.20;;;;;;5060874;28;20461;-46
2022/08/02 08:07:34;;;;;;;3.30;3.00;;;26.60;51.20;;;;;;5061485;28;20453;-46
2022/08/02 08:10:01;;;;;;;3.30;2.47;;;26.70;51.60;;;;;;5057990;28;20488;-46
2022/08/02 08:12:27;;;;;;;2.47;2.27;;;26.90;51.70;;;;;;5057352;28;20465;-46
2022/08/02 08:14:54;;;;;;;3.40;2.40;;;26.90;51.30;;;;;;5062090;28;20465;-46
2022/08/02 08:17:22;;;;;;;4.20;3.10;;;27.00;50.80;;;;;;5058543;28;20502;-46
2022/08/02 08:19:48;;;;;;;7.90;3.10;;;27.10;50.10;;;;;;5059406;28;20449;-51
2022/08/02 08:22:19;;;;;;;10.67;3.80;;;27.20;50.20;;;;;;5058256;28;20974;-46
2022/08/02 08:24:46;;;;;;;6.43;2.97;;;27.30;50.30;;;;;;5056174;28;20492;-46
2022/08/02 08:27:14;;;;;;;5.97;2.80;;;27.40;50.10;;;;;;5058471;28;20472;-46
2022/08/02 08:29:42;;;;;;;3.50;2.47;;;27.60;50.10;;;;;;5055274;28;20480;-46
2022/08/02 08:32:09;;;;;;;3.80;2.73;;;27.70;50.20;;;;;;5040183;28;20210;-46
2022/08/02 08:34:42;;;;;;;5.50;2.97;;;27.80;49.50;;;;;;5062814;28;20660;-46
2022/08/02 08:37:09;;;;;;;4.70;2.43;;;27.90;49.20;;;;;;5078613;28;20226;-46
2022/08/02 08:39:45;;;;;;;4.50;2.07;;;28.00;47.70;;;;;;5062680;28;20198;-46
2022/08/02 08:42:29;;;;;;;3.53;2.60;;;28.10;47.70;;;;;;5049669;28;20205;-46
2022/08/02 08:44:57;;;;;;;2.30;2.10;;;28.20;48.40;;;;;;5060586;28;20214;-46
2022/08/02 08:47:41;;;;;;;3.77;2.70;;;28.20;47.20;;;;;;5046262;28;20226;-46
2022/08/02 08:50:10;;;;;;;3.63;2.73;;;28.30;47.60;;;;;;5078706;28;20687;-46
2022/08/02 08:52:53;;;;;;;2.00;1.90;;;28.30;46.90;;;;;;5053807;28;20217;-46
2022/08/02 08:55:23;;;;;;;4.60;2.30;;;28.40;46.90;;;;;;5058310;28;20207;-46
2022/08/02 08:57:51;;;;;;;3.50;2.47;;;28.50;46.60;;;;;;5056385;28;20854;-46
2022/08/02 09:00:18;;;;;;;3.07;2.27;;;28.60;45.80;;;;;;5057681;28;20207;-46
2022/08/02 09:02:45;;;;;;;31.63;6.07;;;28.70;45.00;;;;;;5043757;28;20281;-46
2022/08/02 09:05:14;;;;;;;12.77;2.73;;;28.80;45.10;;;;;;5058939;28;20203;-49
2022/08/02 09:07:43;;;;;;;2.87;2.40;;;28.90;45.60;;;;;;5076663;28;20199;-49
2022/08/02 09:10:32;;;;;;;2.50;2.30;;;29.00;45.50;;;;;;5059730;28;20675;-49
2022/08/02 09:13:17;;;;;;;3.03;1.77;;;29.10;44.60;;;;;;5059528;28;20221;-49
2022/08/02 09:16:05;;;;;;;3.47;2.63;;;29.20;44.70;;;;;;5062591;28;20569;-49
2022/08/02 09:18:45;;;;;;;6.55;2.20;;;29.40;43.70;;;;;;5064200;28;20206;-49
2022/08/02 09:21:14;;;;;;;2.80;2.30;;;29.40;44.20;;;;;;5059168;28;20209;-50
2022/08/02 09:23:43;;;;;;;5.37;2.53;;;29.60;43.70;;;;;;5056673;28;20395;-49
2022/08/02 09:26:12;;;;;;;4.57;2.28;;;29.70;43.40;;;;;;5043157;28;20221;-49
2022/08/02 09:28:42;;;;;;;2.97;2.00;;;29.80;43.20;;;;;;5044736;28;20214;-49
2022/08/02 09:31:11;;;;;;;3.58;1.90;;;29.90;42.80;;;;;;5058192;28;20215;-49
2022/08/02 09:33:40;;;;;;;1.90;1.70;;;30.00;42.80;;;;;;5060546;28;20221;-49
2022/08/02 09:36:15;;;;;;;2.03;1.88;;;30.00;42.50;;;;;;5057903;28;20202;-49
2022/08/02 09:39:05;;;;;;;2.53;2.33;;;30.00;42.50;;;;;;5064269;28;20225;-49
2022/08/02 09:41:34;;;;;;;2.05;1.85;;;30.10;42.50;;;;;;5071896;28;20202;-49
2022/08/02 09:44:03;;;;;;;1.75;1.63;;;30.10;42.60;;;;;;5044432;28;20685;-49
2022/08/02 09:46:39;;;;;;;2.70;1.58;;;30.20;42.10;;;;;;5058810;28;20207;-49
2022/08/02 09:49:15;;;;;;;1.92;1.77;;;30.20;41.60;;;;;;5041610;28;20221;-50
2022/08/02 09:51:45;;;;;;;2.00;1.80;;;30.30;42.20;;;;;;5059537;28;20203;-49
2022/08/02 09:54:24;;;;;;;1.65;1.55;;;30.40;41.80;;;;;;5060713;28;20241;-49
2022/08/02 09:56:53;;;;;;;2.22;1.15;;;30.50;41.40;;;;;;5055947;28;20580;-49
2022/08/02 09:59:23;;;;;;;2.03;1.65;;;30.50;41.60;;;;;;5059254;28;20213;-49
2022/08/02 10:01:51;;;;;;;2.63;2.10;;;30.50;41.60;;;;;;5058600;28;20687;-49
2022/08/02 10:04:29;;;;;;;2.83;1.60;;;30.50;41.20;;;;;;5055706;28;20222;-49
2022/08/02 10:07:02;;;;;;;1.65;1.55;;;30.60;41.50;;;;;;5057749;28;20493;-49
2022/08/02 10:09:31;;;;;;;2.08;1.88;;;30.60;41.60;;;;;;5059541;28;20336;-50
2022/08/02 10:11:59;;;;;;;3.20;1.67;;;30.70;41.30;;;;;;5045229;28;20207;-49
2022/08/02 10:14:27;;;;;;;3.08;2.00;;;30.80;41.40;;;;;;5052929;28;20210;-49
2022/08/02 10:16:56;;;;;;;4.63;2.30;;;30.90;41.40;;;;;;5057305;28;20231;-50
2022/08/02 10:19:23;;;;;;;1.75;1.65;;;31.00;41.30;;;;;;5053200;28;21607;-50
2022/08/02 10:22:12;;;;;;;2.40;2.20;;;31.10;41.10;;;;;;5043956;28;20264;-50
2022/08/02 10:24:40;;;;;;;1.50;1.40;;;31.20;40.70;;;;;;5037215;28;20676;-50
2022/08/02 10:27:18;;;;;;;1.90;1.80;;;31.30;40.90;;;;;;5062452;28;20209;-50
2022/08/02 10:29:48;;;;;;;2.70;2.20;;;31.30;40.90;;;;;;5056852;28;20311;-50
2022/08/02 10:32:28;;;;;;;2.20;1.75;;;31.10;41.10;;;;;;5057714;28;20217;-50
2022/08/02 10:35:31;;;;;;;1.90;1.40;;;30.90;41.50;;;;;;5038452;28;20211;-50
2022/08/02 10:38:06;;;;;;;4.13;2.15;;;30.70;41.90;;;;;;5021033;28;20237;-50
2022/08/02 10:40:42;;;;;;;4.53;1.60;;;30.60;42.10;;;;;;5040584;28;20229;-50
2022/08/02 10:43:10;;;;;;;6.53;2.42;;;30.50;42.10;;;;;;5070335;28;20211;-50
2022/08/02 10:45:38;;;;;;;1.90;1.80;;;30.30;41.90;;;;;;5053525;28;20211;-50
2022/08/02 10:48:14;;;;;;;3.13;2.28;;;30.20;42.20;;;;;;5055892;28;20504;-50
2022/08/02 10:50:44;;;;;;;1.70;1.50;;;30.10;42.50;;;;;;5071814;28;20225;-50
2022/08/02 10:53:24;;;;;;;2.83;2.58;;;30.00;42.90;;;;;;5055256;28;20585;-50
2022/08/02 10:55:52;;;;;;;2.08;1.90;;;29.80;43.00;;;;;;5057467;28;20202;-50
2022/08/02 10:58:20;;;;;;;2.70;2.13;;;29.70;43.30;;;;;;5057378;28;20238;-50
2022/08/02 11:00:52;;;;;;;3.67;2.15;;;29.60;43.20;;;;;;5025001;28;20203;-50
2022/08/02 11:03:28;;;;;;;2.17;2.00;;;29.50;43.10;;;;;;5055637;28;20240;-50
2022/08/02 11:06:09;;;;;;;2.47;2.05;;;29.40;43.50;;;;;;5068857;28;20208;-50
2022/08/02 11:09:31;;;;;;;2.87;2.03;;;29.20;43.50;;;;;;5042751;28;20628;-50
2022/08/02 11:12:09;;;;;;;3.77;1.90;;;29.10;43.30;;;;;;5054104;28;20215;-50
2022/08/02 11:14:44;;;;;;;1.60;1.50;;;29.00;42.00;;;;;;5077129;28;20285;-50
2022/08/02 11:17:16;;;;;;;1.50;1.40;;;28.90;42.20;;;;;;5062631;28;20245;-50
2022/08/02 11:20:07;;;;;;;1.45;1.35;;;28.80;42.60;;;;;;5073631;28;20207;-50
2022/08/02 11:22:34;;;;;;;1.70;1.60;;;28.80;42.30;;;;;;5057478;28;20325;-50
2022/08/02 11:25:28;;;;;;;1.87;1.77;;;28.80;41.70;;;;;;5048078;28;20229;-50
2022/08/02 11:28:15;;;;;;;1.70;1.60;;;28.70;42.00;;;;;;5043828;28;20215;-50
2022/08/02 11:30:41;;;;;;;3.33;1.70;;;28.70;42.20;;;;;;5041862;28;20209;-50
2022/08/02 11:33:08;;;;;;;1.70;1.60;;;28.60;42.50;;;;;;5058100;28;20217;-50
2022/08/02 11:35:37;;;;;;;3.27;1.73;;;28.60;42.60;;;;;;5059789;28;20236;-50
2022/08/02 11:38:15;;;;;;;1.70;1.60;;;28.60;42.10;;;;;;5057249;28;20237;-50
2022/08/02 11:40:43;;;;;;;1.77;1.67;;;28.60;42.30;;;;;;5037587;28;20214;-50
2022/08/02 11:43:29;;;;;;;2.33;2.13;;;28.70;42.50;;;;;;5059525;28;20712;-50
2022/08/02 11:45:56;;;;;;;2.10;1.90;;;28.80;42.60;;;;;;5055362;28;20218;-50
2022/08/02 11:48:37;;;;;;;2.07;1.80;;;28.80;42.40;;;;;;5057338;28;20210;-50
2022/08/02 11:51:08;;;;;;;2.43;2.23;;;28.80;42.30;;;;;;5056737;28;20214;-50
2022/08/02 11:53:47;;;;;;;1.80;1.70;;;28.80;42.30;;;;;;5054526;28;20293;-50
2022/08/02 11:56:16;;;;;;;1.60;1.50;;;28.80;41.90;;;;;;5056648;28;20225;-50
2022/08/02 11:59:01;;;;;;;1.87;1.77;;;28.80;42.00;;;;;;5052097;28;20223;-50
2022/08/02 12:01:29;;;;;;;2.07;1.90;;;28.70;42.00;;;;;;5052630;28;20656;-50
2022/08/02 12:03:59;;;;;;;3.63;1.60;;;28.70;42.10;;;;;;5054047;28;20204;-49
2022/08/02 12:06:27;;;;;;;2.90;1.63;;;28.70;42.50;;;;;;5054157;28;20214;-49
2022/08/02 12:09:05;;;;;;;1.77;1.67;;;28.70;42.50;;;;;;5054314;28;20211;-49
2022/08/02 12:11:48;;;;;;;1.83;1.73;;;28.70;42.50;;;;;;5058762;28;20686;-49
2022/08/02 12:14:14;;;;;;;2.63;1.83;;;28.70;42.30;;;;;;5052596;28;20579;-49
2022/08/02 12:19:27;;;;;;;1.57;1.47;;;28.70;42.70;;;;;;5055404;28;20199;-49
2022/08/02 12:22:12;;;;;;;1.60;1.50;;;28.70;42.50;;;;;;5057317;28;20218;-50
2022/08/02 12:24:42;;;;;;;2.00;1.90;;;28.70;42.50;;;;;;5054246;28;20252;-49
2022/08/02 12:27:09;;;;;;;2.03;1.73;;;28.70;42.70;;;;;;5053516;28;20229;-49
2022/08/02 12:29:38;;;;;;;1.83;1.63;;;28.80;42.70;;;;;;5053937;28;20207;-50
2022/08/02 12:32:25;;;;;;;2.70;1.70;;;28.80;42.60;;;;;;5056920;28;20202;-49
2022/08/02 12:35:04;;;;;;;2.10;2.00;;;28.90;41.90;;;;;;5045905;28;20214;-49
2022/08/02 12:37:31;;;;;;;2.33;1.98;;;28.90;41.80;;;;;;5057930;28;20559;-49
2022/08/02 12:39:57;;;;;;;2.37;2.13;;;28.90;41.80;;;;;;5060372;28;20203;-50
2022/08/02 12:42:24;;;;;;;2.17;1.50;;;29.00;42.10;;;;;;5047486;28;20207;-50
2022/08/02 12:44:58;;;;;;;1.80;1.70;;;28.90;40.80;;;;;;5038345;28;20207;-49
2022/08/02 12:47:26;;;;;;;2.73;1.50;;;29.00;40.80;;;;;;5043582;28;20256;-50
2022/08/02 12:50:17;;;;;;;1.75;1.65;;;29.00;40.70;;;;;;5059553;28;20199;-50
2022/08/02 12:52:44;;;;;;;1.83;1.50;;;29.10;41.20;;;;;;5062696;28;20448;-50
2022/08/02 12:55:22;;;;;;;1.58;1.48;;;29.10;41.20;;;;;;5060667;28;20824;-50
2022/08/02 12:57:58;;;;;;;1.47;1.37;;;29.10;41.00;;;;;;5041835;28;20276;-50
2022/08/02 13:00:29;;;;;;;2.95;1.70;;;29.10;40.00;;;;;;5060146;28;20228;-50
2022/08/02 13:02:57;;;;;;;2.25;1.85;;;29.10;39.90;;;;;;5047239;28;20576;-49
2022/08/02 13:05:25;;;;;;;2.15;1.95;;;29.10;39.80;;;;;;5057894;28;20660;-50
2022/08/02 13:07:52;;;;;;;1.87;1.43;;;29.20;40.10;;;;;;5055920;28;20211;-50
2022/08/02 13:10:20;;;;;;;2.67;2.17;;;29.20;40.10;;;;;;5057848;28;20203;-50
2022/08/02 13:12:47;;;;;;;1.70;1.60;;;29.20;40.00;;;;;;5058230;28;20222;-50